Time;durP1;ratioP1;P1;durP2;ratioP2;P2;SDS_P1;SDS_P2;PMS_P1;PMS_P2;Temp;Humidity;BMP_temperature;BMP_pressure;BME280_temperature;BME280_humidity;BME280_pressure;Samples;Min_cycle;Max_cycle;Signal;HPM_P1;HPM_P2
2021/04/22 00:00:49;;;;;;;6.78;3.17;;;8.70;99.90;;;;;;1956318;73;21037;-73
2021/04/22 00:03:16;;;;;;;4.03;2.90;;;8.60;99.90;;;;;;1956237;73;21085;-73
2021/04/22 00:05:42;;;;;;;5.30;3.15;;;8.60;99.90;;;;;;1956305;73;21060;-73
2021/04/22 00:08:08;;;;;;;6.60;3.47;;;8.50;99.90;;;;;;1956207;73;21061;-73
2021/04/22 00:10:34;;;;;;;4.70;2.75;;;8.40;99.90;;;;;;1956178;73;21122;-73
2021/04/22 00:13:00;;;;;;;5.85;3.55;;;8.40;99.90;;;;;;1956202;73;21089;-73
2021/04/22 00:15:26;;;;;;;6.12;3.20;;;8.40;99.90;;;;;;1956167;73;21155;-73
2021/04/22 00:17:52;;;;;;;7.30;3.75;;;8.40;99.90;;;;;;1956331;73;21056;-73
2021/04/22 00:20:19;;;;;;;9.53;3.15;;;8.40;99.90;;;;;;1956452;73;21029;-73
2021/04/22 00:22:45;;;;;;;4.90;3.42;;;8.30;99.90;;;;;;1956416;73;21145;-73
2021/04/22 00:25:11;;;;;;;7.80;3.25;;;8.30;99.90;;;;;;1956306;73;21102;-73
2021/04/22 00:27:37;;;;;;;6.30;3.42;;;8.40;99.90;;;;;;1956439;73;21134;-73
2021/04/22 00:30:03;;;;;;;5.22;3.20;;;8.40;99.90;;;;;;1956187;73;21076;-73
2021/04/22 00:32:29;;;;;;;5.67;3.20;;;8.40;99.90;;;;;;1956299;73;21562;-73
2021/04/22 00:34:55;;;;;;;4.55;3.08;;;8.50;99.90;;;;;;1956100;73;21084;-74
2021/04/22 00:37:21;;;;;;;6.37;3.02;;;8.50;99.90;;;;;;1956291;73;21033;-74
2021/04/22 00:39:49;;;;;;;4.80;3.02;;;8.50;99.90;;;;;;1956109;73;21202;-74
2021/04/22 00:42:15;;;;;;;4.45;3.12;;;8.40;99.90;;;;;;1956085;73;21067;-74
2021/04/22 00:44:41;;;;;;;9.93;4.20;;;8.50;99.90;;;;;;1956199;73;21077;-72
2021/04/22 00:47:07;;;;;;;8.33;3.00;;;8.50;99.90;;;;;;1956148;73;21124;-73
2021/04/22 00:49:33;;;;;;;7.62;3.77;;;8.50;99.90;;;;;;1956163;73;21100;-75
2021/04/22 00:51:59;;;;;;;4.67;3.15;;;8.60;99.90;;;;;;1956232;73;21562;-74
2021/04/22 00:54:25;;;;;;;5.25;3.55;;;8.80;99.90;;;;;;1956057;73;21521;-74
2021/04/22 00:56:52;;;;;;;5.05;3.27;;;8.90;99.90;;;;;;1956053;73;21505;-74
2021/04/22 00:59:18;;;;;;;5.92;3.47;;;9.00;99.90;;;;;;1956250;73;21487;-74
2021/04/22 01:01:44;;;;;;;5.37;3.60;;;9.00;99.90;;;;;;1955979;73;21138;-74
2021/04/22 01:04:10;;;;;;;7.35;3.30;;;9.00;99.90;;;;;;1956214;73;21056;-74
2021/04/22 01:06:36;;;;;;;5.35;3.20;;;8.90;99.90;;;;;;1956027;73;21089;-74
2021/04/22 01:09:02;;;;;;;6.40;3.77;;;9.10;99.90;;;;;;1956238;73;21036;-74
2021/04/22 01:11:30;;;;;;;4.00;3.30;;;9.00;99.90;;;;;;1955971;73;21156;-74
2021/04/22 01:13:56;;;;;;;4.30;3.10;;;9.00;99.90;;;;;;1956039;73;21160;-74
2021/04/22 01:16:22;;;;;;;13.48;5.08;;;9.10;99.90;;;;;;1956261;73;21134;-74
2021/04/22 01:18:48;;;;;;;6.42;3.22;;;9.10;99.90;;;;;;1956050;73;21166;-74
2021/04/22 01:21:15;;;;;;;7.05;3.92;;;9.10;99.90;;;;;;1956219;73;21072;-74
2021/04/22 01:23:41;;;;;;;7.67;3.87;;;9.20;99.90;;;;;;1956049;73;21089;-74
2021/04/22 01:26:07;;;;;;;7.17;3.87;;;9.30;99.90;;;;;;1956176;73;21085;-74
2021/04/22 01:28:33;;;;;;;5.62;3.62;;;9.30;99.90;;;;;;1956116;73;21088;-75
2021/04/22 01:30:59;;;;;;;6.83;4.00;;;9.40;99.90;;;;;;1956145;73;21105;-74
2021/04/22 01:33:25;;;;;;;7.25;3.70;;;9.30;99.90;;;;;;1956349;73;21098;-74
2021/04/22 01:35:51;;;;;;;9.28;4.53;;;9.10;99.90;;;;;;1956162;73;21101;-74
2021/04/22 01:38:17;;;;;;;7.53;4.28;;;9.00;99.90;;;;;;1956143;73;21085;-74
2021/04/22 01:40:44;;;;;;;6.55;3.67;;;9.00;99.90;;;;;;1956157;73;21064;-74
2021/04/22 01:43:10;;;;;;;5.85;3.92;;;9.00;99.90;;;;;;1956088;73;21116;-75
2021/04/22 01:45:36;;;;;;;6.12;3.90;;;9.00;99.90;;;;;;1956141;73;21598;-75
2021/04/22 01:48:03;;;;;;;8.30;4.17;;;9.00;99.90;;;;;;1956111;73;21549;-74
2021/04/22 01:50:29;;;;;;;9.55;4.75;;;8.90;99.90;;;;;;1955539;73;21100;-74
2021/04/22 01:52:55;;;;;;;7.90;4.67;;;9.00;99.90;;;;;;1954832;73;21174;-75
2021/04/22 01:55:21;;;;;;;10.30;5.03;;;9.00;99.90;;;;;;1928939;73;21046;-74
2021/04/22 01:57:48;;;;;;;9.40;4.70;;;8.90;99.90;;;;;;1961025;73;21188;-75
2021/04/22 02:00:15;;;;;;;6.50;4.40;;;8.80;99.90;;;;;;1956023;73;21096;-73
2021/04/22 02:02:41;;;;;;;10.00;5.15;;;8.60;99.90;;;;;;1954276;73;21129;-72
2021/04/22 02:05:07;;;;;;;9.75;5.25;;;8.50;99.90;;;;;;1955962;72;21119;-75
2021/04/22 02:07:33;;;;;;;8.55;4.78;;;8.60;99.90;;;;;;1953829;73;21052;-75
2021/04/22 02:09:59;;;;;;;9.05;5.78;;;8.70;99.90;;;;;;1945095;72;21034;-75
2021/04/22 02:12:25;;;;;;;12.13;6.30;;;8.70;99.90;;;;;;1955983;73;21093;-75
2021/04/22 02:14:51;;;;;;;14.90;6.55;;;8.80;99.90;;;;;;1954453;73;21113;-74
2021/04/22 02:17:17;;;;;;;8.10;6.40;;;8.80;99.90;;;;;;1956003;73;21101;-75
2021/04/22 02:19:43;;;;;;;10.63;6.25;;;8.80;99.90;;;;;;1956181;73;21052;-75
2021/04/22 02:22:10;;;;;;;9.40;5.67;;;8.80;99.90;;;;;;1956003;73;21107;-75
2021/04/22 02:24:36;;;;;;;10.20;5.55;;;8.60;99.90;;;;;;1956233;73;21444;-74
2021/04/22 02:27:02;;;;;;;9.13;4.85;;;8.60;99.90;;;;;;1956259;73;21513;-75
2021/04/22 02:29:28;;;;;;;9.28;5.53;;;8.60;99.90;;;;;;1956245;73;21676;-74
2021/04/22 02:31:54;;;;;;;9.98;5.45;;;8.70;99.90;;;;;;1956265;73;21130;-75
2021/04/22 02:34:20;;;;;;;9.10;5.40;;;8.60;99.90;;;;;;1956258;73;21041;-75
2021/04/22 02:36:46;;;;;;;8.45;5.45;;;8.70;99.90;;;;;;1956239;73;21122;-75
2021/04/22 02:39:12;;;;;;;12.47;5.53;;;8.60;99.90;;;;;;1956237;73;21138;-74
2021/04/22 02:41:39;;;;;;;10.50;6.08;;;8.50;99.90;;;;;;1956213;73;21127;-75
2021/04/22 02:44:05;;;;;;;8.70;6.03;;;8.50;99.90;;;;;;1956236;73;21150;-74
2021/04/22 02:46:31;;;;;;;5.50;4.83;;;8.50;99.90;;;;;;1956379;73;21068;-75
2021/04/22 02:48:57;;;;;;;10.58;6.15;;;8.50;99.90;;;;;;1956264;73;21075;-73
2021/04/22 02:51:23;;;;;;;11.15;6.00;;;8.50;99.90;;;;;;1956263;73;21065;-73
2021/04/22 02:53:49;;;;;;;10.10;6.05;;;8.40;99.90;;;;;;1956367;73;21068;-74
2021/04/22 02:56:15;;;;;;;9.53;6.03;;;8.30;99.90;;;;;;1956237;73;21068;-74
2021/04/22 02:58:41;;;;;;;8.90;6.03;;;8.30;99.90;;;;;;1956274;73;21076;-73
2021/04/22 03:01:08;;;;;;;9.50;5.47;;;8.30;99.90;;;;;;1956202;73;21037;-73
2021/04/22 03:03:34;;;;;;;9.50;6.20;;;8.40;99.90;;;;;;1956220;73;21044;-74
2021/04/22 03:06:00;;;;;;;11.10;6.65;;;8.40;99.90;;;;;;1956312;73;21441;-73
2021/04/22 03:08:26;;;;;;;10.00;5.92;;;8.50;99.90;;;;;;1956207;73;21511;-74
2021/04/22 03:10:52;;;;;;;10.85;5.53;;;8.50;99.90;;;;;;1956304;73;21480;-73
2021/04/22 03:13:18;;;;;;;12.07;6.15;;;8.50;99.90;;;;;;1956112;73;21587;-73
2021/04/22 03:15:44;;;;;;;11.85;6.22;;;8.50;99.90;;;;;;1956327;73;21064;-73
2021/04/22 03:18:10;;;;;;;8.68;5.97;;;8.50;99.90;;;;;;1956084;73;21150;-73
2021/04/22 03:20:36;;;;;;;9.48;5.95;;;8.50;99.90;;;;;;1956307;73;21060;-73
2021/04/22 03:23:03;;;;;;;12.58;5.55;;;8.50;99.90;;;;;;1956054;73;21170;-73
2021/04/22 03:25:29;;;;;;;9.73;6.12;;;8.50;99.90;;;;;;1956310;73;21076;-73
2021/04/22 03:27:55;;;;;;;9.35;6.28;;;8.40;99.90;;;;;;1956120;73;21085;-73
2021/04/22 03:30:21;;;;;;;10.18;6.22;;;8.50;99.90;;;;;;1956181;73;21064;-74
2021/04/22 03:32:47;;;;;;;13.20;5.80;;;8.40;99.90;;;;;;1956148;73;21186;-73
2021/04/22 03:35:13;;;;;;;9.03;5.25;;;8.60;99.90;;;;;;1955646;72;21112;-74
2021/04/22 03:37:39;;;;;;;10.48;5.67;;;8.60;99.90;;;;;;1956187;73;21107;-74
2021/04/22 03:40:05;;;;;;;14.58;5.65;;;8.60;99.90;;;;;;1956319;73;21122;-73
2021/04/22 03:42:32;;;;;;;8.88;5.58;;;8.70;99.90;;;;;;1956068;73;21094;-73
2021/04/22 03:44:58;;;;;;;8.00;6.08;;;8.70;99.90;;;;;;1956253;73;21068;-74
2021/04/22 03:47:24;;;;;;;9.13;5.50;;;8.70;99.90;;;;;;1956061;73;21073;-74
2021/04/22 03:49:50;;;;;;;8.08;5.62;;;8.70;99.90;;;;;;1956265;73;21048;-73
2021/04/22 03:52:16;;;;;;;7.60;5.53;;;8.70;99.90;;;;;;1956165;73;21055;-74
2021/04/22 03:54:42;;;;;;;9.48;5.78;;;8.70;99.90;;;;;;1956232;73;21115;-74
2021/04/22 03:57:08;;;;;;;13.75;6.08;;;8.70;99.90;;;;;;1950823;72;21098;-74
2021/04/22 03:59:34;;;;;;;9.45;6.30;;;8.70;99.90;;;;;;1955573;73;21073;-73
2021/04/22 04:02:01;;;;;;;11.73;6.37;;;8.60;99.90;;;;;;1956013;73;21084;-74
2021/04/22 04:04:27;;;;;;;11.43;6.33;;;8.60;99.90;;;;;;1956130;73;21153;-73
2021/04/22 04:06:53;;;;;;;12.23;7.28;;;8.70;99.90;;;;;;1956136;73;21089;-73
2021/04/22 04:09:19;;;;;;;12.13;6.40;;;8.60;99.90;;;;;;1956362;73;21056;-74
2021/04/22 04:11:45;;;;;;;16.35;6.83;;;8.60;99.90;;;;;;1955495;73;21105;-74
2021/04/22 04:14:11;;;;;;;11.00;7.05;;;8.70;99.90;;;;;;1955756;73;22622;-75
2021/04/22 04:16:37;;;;;;;11.55;6.62;;;8.70;99.90;;;;;;1955920;73;21075;-75
2021/04/22 04:19:03;;;;;;;10.63;6.60;;;8.60;99.90;;;;;;1956219;73;21477;-75
2021/04/22 04:21:30;;;;;;;8.40;5.85;;;8.60;99.90;;;;;;1956204;73;21426;-75
2021/04/22 04:23:56;;;;;;;9.80;6.30;;;8.60;99.90;;;;;;1956121;73;21606;-75
2021/04/22 04:26:22;;;;;;;14.73;6.28;;;8.60;99.90;;;;;;1956096;73;21548;-76
2021/04/22 04:28:48;;;;;;;10.72;6.87;;;8.70;99.90;;;;;;1956142;73;21081;-76
2021/04/22 04:31:15;;;;;;;8.78;6.15;;;8.70;99.90;;;;;;1956131;73;21166;-76
2021/04/22 04:33:41;;;;;;;11.15;7.05;;;8.60;99.90;;;;;;1956231;73;21060;-76
2021/04/22 04:36:07;;;;;;;10.95;6.65;;;8.60;99.90;;;;;;1956104;73;21085;-75
2021/04/22 04:38:33;;;;;;;9.73;6.67;;;8.60;99.90;;;;;;1956102;73;21097;-76
2021/04/22 04:40:59;;;;;;;13.35;7.53;;;8.50;99.90;;;;;;1956109;73;21089;-76
2021/04/22 04:43:25;;;;;;;11.28;6.90;;;8.40;99.90;;;;;;1956058;73;21529;-75
2021/04/22 04:45:51;;;;;;;11.88;6.30;;;8.40;99.90;;;;;;1955969;73;21453;-76
2021/04/22 04:48:18;;;;;;;11.83;7.60;;;8.40;99.90;;;;;;1956078;73;21603;-75
2021/04/22 04:50:44;;;;;;;13.38;8.13;;;8.40;99.90;;;;;;1956066;73;21529;-75
2021/04/22 04:53:10;;;;;;;13.03;7.40;;;8.40;99.90;;;;;;1956056;73;21085;-75
2021/04/22 04:55:36;;;;;;;15.03;7.95;;;8.30;99.90;;;;;;1956069;73;21076;-75
2021/04/22 04:58:02;;;;;;;12.70;8.23;;;8.40;99.90;;;;;;1956053;73;21084;-75
2021/04/22 05:00:28;;;;;;;12.75;8.30;;;8.50;99.90;;;;;;1956147;73;21085;-74
2021/04/22 05:02:54;;;;;;;19.85;7.45;;;8.50;99.90;;;;;;1955995;73;21012;-75
2021/04/22 05:05:20;;;;;;;12.03;7.47;;;8.50;99.90;;;;;;1956254;73;21056;-75
2021/04/22 05:07:47;;;;;;;14.78;8.20;;;8.50;99.90;;;;;;1956062;73;21138;-74
2021/04/22 05:10:13;;;;;;;19.27;8.55;;;8.50;99.90;;;;;;1956117;73;21151;-74
2021/04/22 05:12:39;;;;;;;15.18;8.78;;;8.60;99.90;;;;;;1956033;73;21124;-75
2021/04/22 05:15:05;;;;;;;12.82;8.00;;;8.60;99.90;;;;;;1956124;73;21147;-75
2021/04/22 05:17:31;;;;;;;17.00;8.40;;;8.60;99.90;;;;;;1956173;73;21077;-75
2021/04/22 05:19:57;;;;;;;16.35;8.83;;;8.70;99.90;;;;;;1956264;73;21118;-76
2021/04/22 05:22:23;;;;;;;11.30;7.37;;;8.80;99.90;;;;;;1956028;73;21093;-76
2021/04/22 05:24:49;;;;;;;11.65;7.35;;;8.80;99.90;;;;;;1956247;73;21169;-76
2021/04/22 05:27:15;;;;;;;13.80;8.60;;;8.80;99.90;;;;;;1956091;73;21093;-76
2021/04/22 05:29:42;;;;;;;14.00;8.98;;;8.80;99.90;;;;;;1956233;73;21072;-75
2021/04/22 05:32:08;;;;;;;15.10;9.05;;;8.90;99.90;;;;;;1956234;73;21490;-77
2021/04/22 05:34:34;;;;;;;14.03;8.78;;;9.00;99.90;;;;;;1956130;73;21468;-76
2021/04/22 05:37:00;;;;;;;16.10;8.95;;;9.00;99.90;;;;;;1956038;73;21556;-77
2021/04/22 05:39:26;;;;;;;17.90;8.85;;;9.00;99.90;;;;;;1956220;73;21510;-76
2021/04/22 05:41:55;;;;;;;17.67;9.08;;;9.10;99.90;;;;;;1955971;73;21088;-76
2021/04/22 05:44:20;;;;;;;19.27;8.63;;;9.10;99.90;;;;;;1955991;73;21071;-76
2021/04/22 05:46:46;;;;;;;16.60;9.33;;;9.20;99.90;;;;;;1956098;73;21041;-77
2021/04/22 05:49:12;;;;;;;15.48;8.95;;;9.30;99.90;;;;;;1956119;73;21085;-79
2021/04/22 05:51:39;;;;;;;16.05;8.93;;;9.40;99.90;;;;;;1956073;73;21117;-79
2021/04/22 05:54:05;;;;;;;18.12;8.50;;;9.40;99.90;;;;;;1956037;73;21105;-79
2021/04/22 05:56:31;;;;;;;15.25;8.40;;;9.50;99.90;;;;;;1955991;73;21069;-78
2021/04/22 05:58:57;;;;;;;19.32;8.65;;;9.60;99.90;;;;;;1955852;73;21476;-78
2021/04/22 06:01:24;;;;;;;12.53;8.40;;;9.70;99.90;;;;;;1956138;73;21476;-78
2021/04/22 06:03:50;;;;;;;17.85;8.95;;;9.80;99.90;;;;;;1956078;73;21440;-78
2021/04/22 06:06:16;;;;;;;19.62;8.58;;;9.80;99.90;;;;;;1956002;73;21497;-78
2021/04/22 06:08:42;;;;;;;18.27;9.33;;;9.80;99.90;;;;;;1956205;73;21060;-78
2021/04/22 06:11:08;;;;;;;21.25;8.90;;;9.90;99.90;;;;;;1956190;73;21029;-78
2021/04/22 06:13:34;;;;;;;21.75;8.55;;;10.00;99.90;;;;;;1944348;73;21072;-78
2021/04/22 06:16:00;;;;;;;22.98;9.25;;;10.10;99.90;;;;;;1956183;73;21162;-78
2021/04/22 06:18:27;;;;;;;21.37;8.45;;;10.10;99.90;;;;;;1956167;73;21032;-79
2021/04/22 06:20:53;;;;;;;17.15;8.28;;;10.10;99.90;;;;;;1956240;73;21060;-78
2021/04/22 06:23:20;;;;;;;23.45;9.10;;;10.20;99.90;;;;;;1955980;73;21190;-78
2021/04/22 06:25:46;;;;;;;20.10;7.87;;;10.20;99.90;;;;;;1955914;73;21089;-78
2021/04/22 06:28:12;;;;;;;14.75;8.10;;;10.40;99.90;;;;;;1956021;73;21471;-78
2021/04/22 06:30:38;;;;;;;15.38;8.45;;;10.40;99.90;;;;;;1956119;73;21081;-78
2021/04/22 06:33:04;;;;;;;17.17;7.83;;;10.50;99.90;;;;;;1956084;73;21081;-78
2021/04/22 06:35:31;;;;;;;29.37;7.95;;;10.60;99.90;;;;;;1960657;72;21178;-78
2021/04/22 06:37:57;;;;;;;18.23;8.25;;;10.60;99.90;;;;;;1956086;73;21100;-78
2021/04/22 06:40:23;;;;;;;20.45;8.88;;;10.60;99.90;;;;;;1956069;73;21093;-79
2021/04/22 06:42:49;;;;;;;19.12;7.87;;;10.60;99.90;;;;;;1955999;73;21105;-79
2021/04/22 06:45:15;;;;;;;16.37;8.68;;;10.40;99.90;;;;;;1956175;73;21061;-78
2021/04/22 06:47:41;;;;;;;17.07;8.20;;;10.50;99.90;;;;;;1956050;73;21181;-79
2021/04/22 06:50:07;;;;;;;19.55;7.90;;;10.50;99.90;;;;;;1956065;73;21163;-78
2021/04/22 06:52:33;;;;;;;18.00;7.55;;;10.50;99.90;;;;;;1956012;73;21085;-77
2021/04/22 06:55:00;;;;;;;18.65;7.95;;;10.70;99.90;;;;;;1955999;73;21142;-76
2021/04/22 06:57:26;;;;;;;17.98;8.25;;;10.70;99.90;;;;;;1955981;73;21096;-75
2021/04/22 06:59:52;;;;;;;15.55;8.10;;;10.70;99.90;;;;;;1956013;73;21081;-74
2021/04/22 07:02:18;;;;;;;24.10;8.70;;;10.70;99.90;;;;;;1955923;73;21060;-75
2021/04/22 07:04:44;;;;;;;16.52;7.95;;;10.60;99.90;;;;;;1956106;73;21186;-75
2021/04/22 07:07:10;;;;;;;15.00;7.62;;;10.30;99.90;;;;;;1955976;73;21092;-76
2021/04/22 07:09:36;;;;;;;18.67;9.35;;;10.50;99.90;;;;;;1956165;73;21077;-76
2021/04/22 07:12:02;;;;;;;14.40;7.67;;;10.60;99.90;;;;;;1956353;73;21060;-75
2021/04/22 07:14:29;;;;;;;17.50;7.47;;;10.80;99.90;;;;;;1956243;73;21042;-75
2021/04/22 07:16:55;;;;;;;12.10;6.95;;;10.90;99.90;;;;;;1956373;73;21040;-76
2021/04/22 07:19:21;;;;;;;14.43;7.80;;;11.00;99.90;;;;;;1956371;73;21107;-75
2021/04/22 07:21:47;;;;;;;16.67;8.48;;;11.10;99.90;;;;;;1956209;73;21088;-76
2021/04/22 07:24:13;;;;;;;15.58;7.75;;;11.30;99.90;;;;;;1956183;73;21076;-75
2021/04/22 07:26:40;;;;;;;14.68;7.95;;;11.70;99.90;;;;;;1956110;73;21161;-76
2021/04/22 07:29:06;;;;;;;13.43;7.92;;;11.90;99.90;;;;;;1956157;73;21479;-75
2021/04/22 07:31:32;;;;;;;15.50;7.20;;;12.00;99.90;;;;;;1956116;73;21484;-75
2021/04/22 07:33:58;;;;;;;16.17;7.33;;;12.00;99.90;;;;;;1956387;73;21545;-76
2021/04/22 07:36:24;;;;;;;14.93;8.13;;;11.80;99.90;;;;;;1956168;73;21056;-76
2021/04/22 07:38:50;;;;;;;12.37;7.03;;;11.60;99.90;;;;;;1956142;73;21136;-76
2021/04/22 07:41:16;;;;;;;13.55;7.85;;;11.90;99.90;;;;;;1956307;73;21064;-76
2021/04/22 07:43:48;;;;;;;18.17;7.60;;;12.20;99.90;;;;;;1956236;73;21493;-77
2021/04/22 07:46:11;;;;;;;15.15;6.83;;;12.30;99.90;;;;;;1954310;73;21477;-77
2021/04/22 07:48:37;;;;;;;14.65;6.42;;;12.70;99.90;;;;;;1956197;73;21497;-77
2021/04/22 07:51:03;;;;;;;12.33;6.40;;;12.70;99.90;;;;;;1956193;73;21065;-77
2021/04/22 07:53:29;;;;;;;10.78;6.50;;;12.40;99.90;;;;;;1956211;73;21159;-77
2021/04/22 07:55:55;;;;;;;11.03;6.35;;;12.20;99.90;;;;;;1956227;73;21072;-76
2021/04/22 07:58:21;;;;;;;13.72;6.22;;;12.20;99.90;;;;;;1956166;73;21158;-76
2021/04/22 08:00:48;;;;;;;12.10;6.62;;;11.80;99.90;;;;;;1956197;73;21089;-75
2021/04/22 08:03:14;;;;;;;11.03;6.62;;;11.90;99.90;;;;;;1929955;73;21059;-76
2021/04/22 08:05:40;;;;;;;22.48;6.90;;;12.30;99.90;;;;;;1956137;73;21543;-76
2021/04/22 08:08:06;;;;;;;13.13;7.12;;;12.00;99.90;;;;;;1956337;73;21125;-75
2021/04/22 08:10:33;;;;;;;13.68;7.08;;;11.90;99.90;;;;;;1956452;73;21072;-75
2021/04/22 08:13:02;;;;;;;10.48;6.00;;;12.00;99.90;;;;;;1956329;73;21089;-78
2021/04/22 08:15:27;;;;;;;20.02;6.92;;;12.00;99.90;;;;;;1956009;73;21089;-77
2021/04/22 08:17:53;;;;;;;13.00;6.40;;;11.80;99.90;;;;;;1956289;73;21093;-76
2021/04/22 08:20:24;;;;;;;13.60;6.97;;;11.70;99.90;;;;;;1956218;73;21064;-75
2021/04/22 08:22:57;;;;;;;12.10;6.95;;;11.40;99.90;;;;;;1955447;72;21646;-75
2021/04/22 08:25:20;;;;;;;15.50;7.33;;;11.50;99.90;;;;;;1952889;73;21085;-76
2021/04/22 08:27:45;;;;;;;15.98;6.72;;;11.70;99.90;;;;;;1955864;72;21085;-76
2021/04/22 08:30:11;;;;;;;12.75;7.00;;;11.90;99.90;;;;;;1956199;73;21203;-76
2021/04/22 08:32:37;;;;;;;12.60;6.62;;;11.80;99.90;;;;;;1956187;73;21093;-76
2021/04/22 08:35:04;;;;;;;14.20;6.50;;;11.80;99.90;;;;;;1956215;73;21060;-77
2021/04/22 08:37:30;;;;;;;14.35;6.87;;;11.90;99.90;;;;;;1932934;72;21120;-77
2021/04/22 08:39:56;;;;;;;12.33;6.47;;;12.30;99.90;;;;;;1956268;73;21060;-76
2021/04/22 08:42:22;;;;;;;17.32;7.15;;;12.10;99.90;;;;;;1956294;73;21060;-76
2021/04/22 08:44:48;;;;;;;15.63;7.12;;;12.10;99.90;;;;;;1956295;73;21056;-77
2021/04/22 08:47:14;;;;;;;19.35;6.42;;;12.50;99.90;;;;;;1930046;73;21060;-78
2021/04/22 08:49:40;;;;;;;13.83;6.45;;;12.50;99.90;;;;;;1945193;72;21128;-78
2021/04/22 08:52:06;;;;;;;17.15;7.20;;;12.80;99.90;;;;;;1955994;73;21093;-77
2021/04/22 08:54:33;;;;;;;14.85;6.67;;;13.00;99.90;;;;;;1954967;73;21076;-77
2021/04/22 08:56:59;;;;;;;19.35;6.97;;;12.80;99.90;;;;;;1955870;72;21492;-78
2021/04/22 08:59:25;;;;;;;12.73;6.28;;;12.50;99.90;;;;;;1955862;73;21511;-78
2021/04/22 09:01:51;;;;;;;16.02;6.85;;;12.30;99.90;;;;;;1956127;73;21445;-78
2021/04/22 09:04:18;;;;;;;18.77;7.05;;;12.60;99.90;;;;;;1956241;73;21068;-78
2021/04/22 09:06:44;;;;;;;11.75;5.62;;;12.40;99.90;;;;;;1956432;73;21125;-78
2021/04/22 09:09:10;;;;;;;16.87;6.42;;;12.80;99.90;;;;;;1956326;73;21084;-78
2021/04/22 09:11:36;;;;;;;11.00;6.83;;;13.10;99.90;;;;;;1956291;73;21056;-78
2021/04/22 09:14:03;;;;;;;17.98;6.75;;;12.90;99.90;;;;;;1956379;73;21056;-77
2021/04/22 09:16:30;;;;;;;12.80;6.10;;;12.90;99.90;;;;;;1956180;73;21084;-78
2021/04/22 09:18:59;;;;;;;19.75;6.70;;;13.30;99.90;;;;;;1955937;73;21085;-78
2021/04/22 09:21:25;;;;;;;12.07;6.10;;;13.30;99.90;;;;;;1955958;73;21081;-77
2021/04/22 09:23:51;;;;;;;14.25;6.00;;;13.20;99.90;;;;;;1956573;73;21067;-78
2021/04/22 09:26:17;;;;;;;17.45;6.58;;;12.90;99.90;;;;;;1956055;73;21089;-77
2021/04/22 09:28:49;;;;;;;11.68;5.75;;;13.10;99.90;;;;;;1956223;73;21029;-79
2021/04/22 09:31:15;;;;;;;13.08;5.35;;;13.20;99.90;;;;;;1956200;73;21498;-78
2021/04/22 09:33:41;;;;;;;10.50;5.12;;;13.80;99.90;;;;;;1956263;73;21549;-77
2021/04/22 09:36:07;;;;;;;10.70;5.05;;;14.20;99.90;;;;;;1956036;73;21489;-77
2021/04/22 09:38:33;;;;;;;13.65;4.92;;;14.50;99.90;;;;;;1956222;73;21460;-77
2021/04/22 09:41:00;;;;;;;10.90;4.80;;;14.20;99.90;;;;;;1956049;73;21536;-78
2021/04/22 09:43:26;;;;;;;10.20;5.00;;;14.30;99.90;;;;;;1955954;73;21493;-76
2021/04/22 09:45:53;;;;;;;10.53;4.83;;;13.90;99.90;;;;;;1957069;73;21060;-74
2021/04/22 09:48:19;;;;;;;10.72;4.97;;;13.90;99.90;;;;;;1957738;73;21088;-74
2021/04/22 09:50:45;;;;;;;11.75;5.58;;;14.00;99.90;;;;;;1958105;73;21041;-75
2021/04/22 09:53:12;;;;;;;11.68;4.75;;;14.40;99.90;;;;;;1956988;73;21559;-75
2021/04/22 09:55:38;;;;;;;10.78;5.05;;;14.20;99.90;;;;;;1956882;73;21525;-76
2021/04/22 09:58:04;;;;;;;9.48;4.75;;;14.30;99.90;;;;;;1956582;73;21084;-76
2021/04/22 10:00:30;;;;;;;10.30;4.10;;;14.70;99.90;;;;;;1956921;73;21107;-79
2021/04/22 10:02:56;;;;;;;7.97;4.42;;;14.50;99.90;;;;;;1956757;73;21036;-79
2021/04/22 10:05:23;;;;;;;8.20;3.98;;;14.20;99.90;;;;;;1957313;73;21033;-78
2021/04/22 10:07:49;;;;;;;6.33;3.37;;;14.70;99.90;;;;;;1959008;73;21077;-77
2021/04/22 10:10:15;;;;;;;6.83;3.72;;;15.30;99.90;;;;;;1959215;73;20993;-78
2021/04/22 10:12:41;;;;;;;8.45;4.17;;;15.60;99.90;;;;;;1956361;73;21088;-78
2021/04/22 10:15:07;;;;;;;5.47;2.95;;;15.80;99.90;;;;;;1957515;73;21492;-78
2021/04/22 10:17:33;;;;;;;5.72;3.25;;;15.30;99.90;;;;;;1956706;73;21496;-77
2021/04/22 10:20:00;;;;;;;8.08;4.33;;;15.00;99.90;;;;;;1956358;73;21155;-77
2021/04/22 10:22:26;;;;;;;9.35;4.10;;;14.40;99.90;;;;;;1957190;73;21029;-76
2021/04/22 10:24:52;;;;;;;7.17;3.75;;;14.30;99.90;;;;;;1956468;73;21133;-77
2021/04/22 10:27:18;;;;;;;6.75;3.08;;;14.60;99.90;;;;;;1956150;73;21090;-75
2021/04/22 10:29:44;;;;;;;7.15;2.95;;;15.10;99.90;;;;;;1956143;73;21162;-76
2021/04/22 10:32:10;;;;;;;11.95;3.55;;;15.60;99.90;;;;;;1956147;73;21140;-77
2021/04/22 10:34:36;;;;;;;6.50;3.22;;;15.70;99.90;;;;;;1956129;73;21553;-76
2021/04/22 10:37:03;;;;;;;15.40;3.72;;;15.20;99.90;;;;;;1956054;73;21526;-74
2021/04/22 10:39:29;;;;;;;9.55;2.92;;;14.90;99.90;;;;;;1956113;73;21565;-75
2021/04/22 10:41:55;;;;;;;7.50;2.98;;;15.50;99.90;;;;;;1956104;73;21512;-74
2021/04/22 10:44:21;;;;;;;7.78;3.37;;;15.90;99.90;;;;;;1956194;73;21448;-75
2021/04/22 10:46:48;;;;;;;5.60;3.08;;;16.40;99.90;;;;;;1956244;73;21040;-75
2021/04/22 10:49:14;;;;;;;8.03;3.02;;;15.80;99.90;;;;;;1956326;73;21056;-75
2021/04/22 10:51:40;;;;;;;13.18;3.25;;;15.60;99.90;;;;;;1956295;73;21096;-74
2021/04/22 10:54:06;;;;;;;11.15;2.87;;;15.90;99.90;;;;;;1956230;73;21126;-74
2021/04/22 10:56:32;;;;;;;6.22;2.75;;;15.40;99.90;;;;;;1956325;73;21060;-76
2021/04/22 10:58:58;;;;;;;4.80;2.55;;;15.70;99.90;;;;;;1956230;73;21138;-73
2021/04/22 11:01:24;;;;;;;3.62;2.33;;;15.30;99.90;;;;;;1956289;73;21056;-73
2021/04/22 11:03:50;;;;;;;7.95;2.72;;;15.50;99.90;;;;;;1956022;73;21181;-74
2021/04/22 11:06:17;;;;;;;11.25;2.30;;;15.20;99.90;;;;;;1955865;73;21055;-74
2021/04/22 11:08:43;;;;;;;5.53;2.17;;;15.40;99.90;;;;;;1956293;73;21060;-73
2021/04/22 11:11:09;;;;;;;7.35;2.60;;;15.50;99.40;;;;;;1956062;73;21096;-74
2021/04/22 11:13:35;;;;;;;3.72;1.90;;;15.70;99.00;;;;;;1956261;73;21134;-72
2021/04/22 11:16:02;;;;;;;5.30;2.47;;;16.10;96.30;;;;;;1956062;73;21070;-73
2021/04/22 11:18:28;;;;;;;7.17;2.08;;;16.50;93.20;;;;;;1935133;73;21127;-73
2021/04/22 11:20:54;;;;;;;4.70;2.10;;;16.60;93.00;;;;;;1954625;73;21121;-73
2021/04/22 11:23:24;;;;;;;4.75;1.92;;;16.90;94.10;;;;;;1954577;73;21107;-72
2021/04/22 11:25:48;;;;;;;7.97;2.15;;;16.60;92.40;;;;;;1956063;73;21069;-72
2021/04/22 11:28:16;;;;;;;6.40;2.37;;;16.10;93.10;;;;;;1956103;73;21088;-74
2021/04/22 11:30:42;;;;;;;7.30;1.77;;;16.10;93.10;;;;;;1956277;73;21520;-74
2021/04/22 11:33:08;;;;;;;4.58;2.20;;;15.60;90.90;;;;;;1956232;73;21084;-74
2021/04/22 11:35:35;;;;;;;4.45;1.47;;;15.80;88.80;;;;;;1956564;73;21056;-73
2021/04/22 11:38:01;;;;;;;3.72;1.52;;;16.40;86.70;;;;;;1956234;73;21166;-74
2021/04/22 11:40:29;;;;;;;6.15;1.67;;;16.70;82.00;;;;;;1956233;73;21073;-75
2021/04/22 11:42:56;;;;;;;6.75;1.45;;;16.90;78.10;;;;;;1956223;73;21127;-75
2021/04/22 11:45:22;;;;;;;3.05;1.50;;;16.80;73.70;;;;;;1956190;73;21549;-75
2021/04/22 11:47:48;;;;;;;4.00;1.47;;;16.80;70.20;;;;;;1956179;73;21537;-76
2021/04/22 11:50:17;;;;;;;3.70;1.37;;;16.30;68.20;;;;;;1956215;73;21379;-76
2021/04/22 11:52:43;;;;;;;8.98;1.50;;;16.50;68.90;;;;;;1956180;73;21509;-75
2021/04/22 11:55:09;;;;;;;3.22;1.45;;;17.40;64.70;;;;;;1956112;73;21426;-75
2021/04/22 11:57:35;;;;;;;4.25;1.47;;;17.70;58.90;;;;;;1956202;73;21155;-76
2021/04/22 12:00:02;;;;;;;2.10;1.30;;;17.00;60.20;;;;;;1956225;73;21064;-75
2021/04/22 12:02:28;;;;;;;5.08;1.20;;;17.40;58.70;;;;;;1956190;73;21056;-76
2021/04/22 12:04:54;;;;;;;1.85;1.25;;;17.70;58.00;;;;;;1956162;73;21063;-76
2021/04/22 12:07:20;;;;;;;4.47;1.42;;;17.80;58.30;;;;;;1956163;73;21064;-76
2021/04/22 12:09:46;;;;;;;3.80;1.50;;;17.80;58.10;;;;;;1956268;73;21005;-77
2021/04/22 12:12:12;;;;;;;3.17;1.32;;;18.40;54.10;;;;;;1956152;73;21096;-76
2021/04/22 12:14:38;;;;;;;5.10;1.52;;;18.60;52.80;;;;;;1956152;73;21159;-76
2021/04/22 12:17:04;;;;;;;5.90;1.20;;;18.30;52.00;;;;;;1956292;73;21056;-76
2021/04/22 12:19:31;;;;;;;2.15;0.90;;;18.00;52.20;;;;;;1956264;73;21080;-77
2021/04/22 12:21:58;;;;;;;2.12;0.82;;;18.40;51.00;;;;;;1956224;73;21072;-77
2021/04/22 12:24:24;;;;;;;1.57;0.88;;;19.10;49.60;;;;;;1956200;73;21068;-77
2021/04/22 12:26:51;;;;;;;2.98;1.15;;;19.50;48.90;;;;;;1956283;73;21107;-77
2021/04/22 12:29:17;;;;;;;6.33;0.90;;;19.50;46.30;;;;;;1956358;73;21064;-76
2021/04/22 12:31:43;;;;;;;5.47;0.93;;;18.40;46.40;;;;;;1956347;73;21037;-74
2021/04/22 12:34:09;;;;;;;1.07;0.80;;;18.80;45.60;;;;;;1956384;73;21130;-76
2021/04/22 12:39:19;;;;;;;4.05;1.30;;;19.40;45.80;;;;;;1956266;73;21036;-77
2021/04/22 12:41:45;;;;;;;5.90;1.35;;;19.20;47.30;;;;;;1956392;73;21129;-77